Pascola, Missouri
Current Conditions -  °F | °C
As of 2:53 PM on Friday 19 Dec 2014 (Local Time) from KHKA Reporting Station
Clear Clear  
Wind Chill:   Ceiling: Unl
Heat Index:   Visibility: 10mi
Dew Point: -1°   Wind: 10mph
Humidity: 67%   Direction: 50°NE
Pressure: 30.23"   Gusts: NA
Location:  36.27°N, 89.83°W
Report Text: KHKA 192053Z AUTO 05009KT 10SM CLR 05/M01 A3023 RMK AO2 SLP236 T00501006 56023
Loading
Personal Weather Stations






























Interactive Weather Map New forecast layout! Learn more

10-Day Weather Forecast

Advertisements
Track Severe Weather on mobile